sensor_id;sensor_type;location;lat;lon;timestamp;P1;durP1;ratioP1;P2;durP2;ratioP2
6133;SDS011;3098;42.678;23.364;2023-05-02T00:01:45;6.40;;;4.22;;
6133;SDS011;3098;42.678;23.364;2023-05-02T00:04:12;6.15;;;4.05;;
6133;SDS011;3098;42.678;23.364;2023-05-02T00:06:39;7.93;;;3.97;;
6133;SDS011;3098;42.678;23.364;2023-05-02T00:09:07;7.53;;;4.38;;
6133;SDS011;3098;42.678;23.364;2023-05-02T00:11:34;8.23;;;4.65;;
6133;SDS011;3098;42.678;23.364;2023-05-02T00:14:01;7.45;;;3.90;;
6133;SDS011;3098;42.678;23.364;2023-05-02T00:16:30;8.07;;;4.28;;
6133;SDS011;3098;42.678;23.364;2023-05-02T00:18:57;9.27;;;4.03;;
6133;SDS011;3098;42.678;23.364;2023-05-02T00:21:24;9.52;;;4.53;;
6133;SDS011;3098;42.678;23.364;2023-05-02T00:23:53;7.82;;;4.47;;
6133;SDS011;3098;42.678;23.364;2023-05-02T00:26:21;6.68;;;4.22;;
6133;SDS011;3098;42.678;23.364;2023-05-02T00:28:47;9.95;;;4.43;;
6133;SDS011;3098;42.678;23.364;2023-05-02T00:31:15;9.75;;;4.47;;
6133;SDS011;3098;42.678;23.364;2023-05-02T00:33:43;7.45;;;3.88;;
6133;SDS011;3098;42.678;23.364;2023-05-02T00:36:13;6.85;;;3.90;;
6133;SDS011;3098;42.678;23.364;2023-05-02T00:38:41;6.72;;;4.32;;
6133;SDS011;3098;42.678;23.364;2023-05-02T00:41:07;7.95;;;4.28;;
6133;SDS011;3098;42.678;23.364;2023-05-02T00:43:35;8.05;;;4.53;;
6133;SDS011;3098;42.678;23.364;2023-05-02T00:46:03;7.63;;;4.25;;
6133;SDS011;3098;42.678;23.364;2023-05-02T00:48:31;6.05;;;4.32;;
6133;SDS011;3098;42.678;23.364;2023-05-02T00:51:00;7.65;;;4.55;;
6133;SDS011;3098;42.678;23.364;2023-05-02T00:53:29;7.18;;;4.22;;
6133;SDS011;3098;42.678;23.364;2023-05-02T00:55:57;9.95;;;4.78;;
6133;SDS011;3098;42.678;23.364;2023-05-02T00:58:24;9.43;;;4.55;;
6133;SDS011;3098;42.678;23.364;2023-05-02T01:03:45;10.10;;;4.47;;
6133;SDS011;3098;42.678;23.364;2023-05-02T01:06:29;9.43;;;4.88;;
6133;SDS011;3098;42.678;23.364;2023-05-02T01:09:16;7.50;;;4.43;;
6133;SDS011;3098;42.678;23.364;2023-05-02T01:11:55;7.85;;;4.72;;
6133;SDS011;3098;42.678;23.364;2023-05-02T01:14:28;6.57;;;4.40;;
6133;SDS011;3098;42.678;23.364;2023-05-02T01:17:00;7.35;;;4.90;;
6133;SDS011;3098;42.678;23.364;2023-05-02T01:19:31;7.78;;;4.55;;
6133;SDS011;3098;42.678;23.364;2023-05-02T01:22:04;6.60;;;4.57;;
6133;SDS011;3098;42.678;23.364;2023-05-02T01:24:34;6.57;;;4.40;;
6133;SDS011;3098;42.678;23.364;2023-05-02T01:27:10;7.70;;;4.57;;
6133;SDS011;3098;42.678;23.364;2023-05-02T01:29:45;8.43;;;4.82;;
6133;SDS011;3098;42.678;23.364;2023-05-02T01:32:16;7.78;;;4.88;;
6133;SDS011;3098;42.678;23.364;2023-05-02T01:34:47;7.35;;;4.80;;
6133;SDS011;3098;42.678;23.364;2023-05-02T01:37:17;6.18;;;4.65;;
6133;SDS011;3098;42.678;23.364;2023-05-02T01:39:45;8.65;;;4.80;;
6133;SDS011;3098;42.678;23.364;2023-05-02T01:42:14;7.28;;;4.80;;
6133;SDS011;3098;42.678;23.364;2023-05-02T01:44:43;7.72;;;4.78;;
6133;SDS011;3098;42.678;23.364;2023-05-02T01:47:12;7.47;;;4.55;;
6133;SDS011;3098;42.678;23.364;2023-05-02T01:49:41;7.50;;;5.05;;
6133;SDS011;3098;42.678;23.364;2023-05-02T01:52:10;7.20;;;4.70;;
6133;SDS011;3098;42.678;23.364;2023-05-02T01:54:39;5.28;;;3.85;;
6133;SDS011;3098;42.678;23.364;2023-05-02T01:57:07;7.15;;;4.80;;
6133;SDS011;3098;42.678;23.364;2023-05-02T01:59:35;7.18;;;4.80;;
6133;SDS011;3098;42.678;23.364;2023-05-02T02:02:06;15.35;;;4.78;;
6133;SDS011;3098;42.678;23.364;2023-05-02T02:04:36;6.90;;;4.45;;
6133;SDS011;3098;42.678;23.364;2023-05-02T02:07:05;6.40;;;4.40;;
6133;SDS011;3098;42.678;23.364;2023-05-02T02:09:35;8.23;;;4.70;;
6133;SDS011;3098;42.678;23.364;2023-05-02T02:12:04;10.13;;;5.65;;
6133;SDS011;3098;42.678;23.364;2023-05-02T02:14:33;10.10;;;4.90;;
6133;SDS011;3098;42.678;23.364;2023-05-02T02:17:04;8.50;;;5.05;;
6133;SDS011;3098;42.678;23.364;2023-05-02T02:19:40;7.72;;;5.25;;
6133;SDS011;3098;42.678;23.364;2023-05-02T02:22:08;11.25;;;5.00;;
6133;SDS011;3098;42.678;23.364;2023-05-02T02:24:38;7.07;;;4.07;;
6133;SDS011;3098;42.678;23.364;2023-05-02T02:27:06;8.40;;;5.03;;
6133;SDS011;3098;42.678;23.364;2023-05-02T02:29:33;7.05;;;4.78;;
6133;SDS011;3098;42.678;23.364;2023-05-02T02:32:00;9.27;;;5.10;;
6133;SDS011;3098;42.678;23.364;2023-05-02T02:34:27;8.27;;;5.13;;
6133;SDS011;3098;42.678;23.364;2023-05-02T02:36:56;7.43;;;4.47;;
6133;SDS011;3098;42.678;23.364;2023-05-02T02:39:33;7.43;;;5.15;;
6133;SDS011;3098;42.678;23.364;2023-05-02T02:42:10;8.75;;;5.00;;
6133;SDS011;3098;42.678;23.364;2023-05-02T02:44:46;7.60;;;5.05;;
6133;SDS011;3098;42.678;23.364;2023-05-02T02:47:22;6.90;;;4.65;;
6133;SDS011;3098;42.678;23.364;2023-05-02T02:49:59;8.60;;;5.22;;
6133;SDS011;3098;42.678;23.364;2023-05-02T02:52:44;8.45;;;5.30;;
6133;SDS011;3098;42.678;23.364;2023-05-02T02:55:20;9.27;;;5.63;;
6133;SDS011;3098;42.678;23.364;2023-05-02T02:57:56;9.05;;;5.47;;
6133;SDS011;3098;42.678;23.364;2023-05-02T03:00:26;10.60;;;5.60;;
6133;SDS011;3098;42.678;23.364;2023-05-02T03:02:54;8.15;;;5.43;;
6133;SDS011;3098;42.678;23.364;2023-05-02T03:05:21;10.90;;;5.75;;
6133;SDS011;3098;42.678;23.364;2023-05-02T03:07:51;10.25;;;6.00;;
6133;SDS011;3098;42.678;23.364;2023-05-02T03:10:20;7.70;;;4.88;;
6133;SDS011;3098;42.678;23.364;2023-05-02T03:12:48;11.38;;;5.88;;
6133;SDS011;3098;42.678;23.364;2023-05-02T03:15:21;9.07;;;5.75;;
6133;SDS011;3098;42.678;23.364;2023-05-02T03:17:59;9.32;;;6.05;;
6133;SDS011;3098;42.678;23.364;2023-05-02T03:20:26;11.27;;;6.90;;
6133;SDS011;3098;42.678;23.364;2023-05-02T03:22:54;12.40;;;6.60;;
6133;SDS011;3098;42.678;23.364;2023-05-02T03:25:21;9.70;;;6.30;;
6133;SDS011;3098;42.678;23.364;2023-05-02T03:27:48;8.82;;;5.95;;
6133;SDS011;3098;42.678;23.364;2023-05-02T03:30:15;10.23;;;6.22;;
6133;SDS011;3098;42.678;23.364;2023-05-02T03:32:42;10.63;;;6.10;;
6133;SDS011;3098;42.678;23.364;2023-05-02T03:35:09;8.35;;;5.90;;
6133;SDS011;3098;42.678;23.364;2023-05-02T03:37:36;10.00;;;6.20;;
6133;SDS011;3098;42.678;23.364;2023-05-02T03:40:04;10.73;;;6.15;;
6133;SDS011;3098;42.678;23.364;2023-05-02T03:42:33;8.95;;;5.55;;
6133;SDS011;3098;42.678;23.364;2023-05-02T03:45:04;9.60;;;5.88;;
6133;SDS011;3098;42.678;23.364;2023-05-02T03:47:31;12.93;;;6.50;;
6133;SDS011;3098;42.678;23.364;2023-05-02T03:49:58;9.27;;;5.95;;
6133;SDS011;3098;42.678;23.364;2023-05-02T03:52:26;10.35;;;5.88;;
6133;SDS011;3098;42.678;23.364;2023-05-02T03:54:53;9.43;;;5.63;;
6133;SDS011;3098;42.678;23.364;2023-05-02T03:57:21;14.88;;;5.47;;
6133;SDS011;3098;42.678;23.364;2023-05-02T03:59:48;7.90;;;5.43;;
6133;SDS011;3098;42.678;23.364;2023-05-02T04:02:15;12.20;;;5.85;;
6133;SDS011;3098;42.678;23.364;2023-05-02T04:04:42;8.43;;;5.22;;
6133;SDS011;3098;42.678;23.364;2023-05-02T04:07:09;10.23;;;5.25;;
6133;SDS011;3098;42.678;23.364;2023-05-02T04:09:42;8.10;;;5.20;;
6133;SDS011;3098;42.678;23.364;2023-05-02T04:12:09;10.35;;;5.88;;
6133;SDS011;3098;42.678;23.364;2023-05-02T04:14:37;9.20;;;5.28;;
6133;SDS011;3098;42.678;23.364;2023-05-02T04:17:04;11.98;;;5.63;;
6133;SDS011;3098;42.678;23.364;2023-05-02T04:19:32;11.50;;;5.53;;
6133;SDS011;3098;42.678;23.364;2023-05-02T04:22:01;8.95;;;5.43;;
6133;SDS011;3098;42.678;23.364;2023-05-02T04:24:28;12.05;;;5.10;;
6133;SDS011;3098;42.678;23.364;2023-05-02T04:26:54;8.60;;;6.18;;
6133;SDS011;3098;42.678;23.364;2023-05-02T04:29:22;10.50;;;5.47;;
6133;SDS011;3098;42.678;23.364;2023-05-02T04:31:51;9.63;;;5.88;;
6133;SDS011;3098;42.678;23.364;2023-05-02T04:34:18;9.60;;;5.45;;
6133;SDS011;3098;42.678;23.364;2023-05-02T04:36:45;9.18;;;4.82;;
6133;SDS011;3098;42.678;23.364;2023-05-02T04:39:12;9.63;;;4.95;;
6133;SDS011;3098;42.678;23.364;2023-05-02T04:41:40;11.82;;;5.20;;
6133;SDS011;3098;42.678;23.364;2023-05-02T04:44:07;11.18;;;5.35;;
6133;SDS011;3098;42.678;23.364;2023-05-02T04:46:34;14.75;;;4.80;;
6133;SDS011;3098;42.678;23.364;2023-05-02T04:49:02;7.68;;;4.43;;
6133;SDS011;3098;42.678;23.364;2023-05-02T04:51:30;6.60;;;4.57;;
6133;SDS011;3098;42.678;23.364;2023-05-02T04:53:57;8.27;;;5.20;;
6133;SDS011;3098;42.678;23.364;2023-05-02T04:56:24;12.48;;;4.85;;
6133;SDS011;3098;42.678;23.364;2023-05-02T04:58:51;8.35;;;5.20;;
6133;SDS011;3098;42.678;23.364;2023-05-02T05:01:18;11.05;;;5.15;;
6133;SDS011;3098;42.678;23.364;2023-05-02T05:03:45;7.10;;;5.07;;
6133;SDS011;3098;42.678;23.364;2023-05-02T05:06:14;8.45;;;5.00;;
6133;SDS011;3098;42.678;23.364;2023-05-02T05:08:42;9.38;;;4.95;;
6133;SDS011;3098;42.678;23.364;2023-05-02T05:11:09;9.13;;;4.38;;
6133;SDS011;3098;42.678;23.364;2023-05-02T05:13:37;6.55;;;3.80;;
6133;SDS011;3098;42.678;23.364;2023-05-02T05:16:04;9.10;;;3.95;;
6133;SDS011;3098;42.678;23.364;2023-05-02T05:18:32;6.13;;;4.10;;
6133;SDS011;3098;42.678;23.364;2023-05-02T05:21:04;9.85;;;3.72;;
6133;SDS011;3098;42.678;23.364;2023-05-02T05:23:33;4.90;;;3.35;;
6133;SDS011;3098;42.678;23.364;2023-05-02T05:26:07;6.40;;;3.63;;
6133;SDS011;3098;42.678;23.364;2023-05-02T05:28:35;8.98;;;3.75;;
6133;SDS011;3098;42.678;23.364;2023-05-02T05:31:06;7.13;;;3.58;;
6133;SDS011;3098;42.678;23.364;2023-05-02T05:33:35;5.95;;;3.28;;
6133;SDS011;3098;42.678;23.364;2023-05-02T05:36:03;4.75;;;3.03;;
6133;SDS011;3098;42.678;23.364;2023-05-02T05:38:32;5.65;;;3.13;;
6133;SDS011;3098;42.678;23.364;2023-05-02T05:41:00;5.68;;;3.63;;
6133;SDS011;3098;42.678;23.364;2023-05-02T05:43:28;6.25;;;3.40;;
6133;SDS011;3098;42.678;23.364;2023-05-02T05:45:55;14.20;;;3.60;;
6133;SDS011;3098;42.678;23.364;2023-05-02T05:48:22;4.50;;;2.92;;
6133;SDS011;3098;42.678;23.364;2023-05-02T05:50:49;8.98;;;3.08;;
6133;SDS011;3098;42.678;23.364;2023-05-02T05:53:19;5.40;;;3.22;;
6133;SDS011;3098;42.678;23.364;2023-05-02T05:55:50;7.18;;;3.08;;
6133;SDS011;3098;42.678;23.364;2023-05-02T05:58:17;7.45;;;3.47;;
6133;SDS011;3098;42.678;23.364;2023-05-02T06:00:47;3.72;;;2.78;;
6133;SDS011;3098;42.678;23.364;2023-05-02T06:03:14;5.00;;;3.13;;
6133;SDS011;3098;42.678;23.364;2023-05-02T06:05:44;5.28;;;3.60;;
6133;SDS011;3098;42.678;23.364;2023-05-02T06:08:11;4.13;;;3.00;;
6133;SDS011;3098;42.678;23.364;2023-05-02T06:10:39;6.05;;;3.50;;
6133;SDS011;3098;42.678;23.364;2023-05-02T06:13:07;10.98;;;3.63;;
6133;SDS011;3098;42.678;23.364;2023-05-02T06:15:34;5.43;;;3.28;;
6133;SDS011;3098;42.678;23.364;2023-05-02T06:18:02;4.25;;;3.20;;
6133;SDS011;3098;42.678;23.364;2023-05-02T06:20:31;5.45;;;3.45;;
6133;SDS011;3098;42.678;23.364;2023-05-02T06:22:58;3.97;;;3.30;;
6133;SDS011;3098;42.678;23.364;2023-05-02T06:25:25;6.35;;;2.75;;
6133;SDS011;3098;42.678;23.364;2023-05-02T06:27:53;3.30;;;2.67;;
6133;SDS011;3098;42.678;23.364;2023-05-02T06:30:21;4.80;;;3.17;;
6133;SDS011;3098;42.678;23.364;2023-05-02T06:32:48;4.47;;;2.63;;
6133;SDS011;3098;42.678;23.364;2023-05-02T06:35:15;5.72;;;2.90;;
6133;SDS011;3098;42.678;23.364;2023-05-02T06:37:42;4.40;;;3.00;;
6133;SDS011;3098;42.678;23.364;2023-05-02T06:40:10;5.53;;;2.95;;
6133;SDS011;3098;42.678;23.364;2023-05-02T06:42:38;7.32;;;2.95;;
6133;SDS011;3098;42.678;23.364;2023-05-02T06:45:06;8.07;;;3.42;;
6133;SDS011;3098;42.678;23.364;2023-05-02T06:47:35;3.50;;;2.70;;
6133;SDS011;3098;42.678;23.364;2023-05-02T06:50:02;4.72;;;3.25;;
6133;SDS011;3098;42.678;23.364;2023-05-02T06:52:29;7.78;;;2.65;;
6133;SDS011;3098;42.678;23.364;2023-05-02T06:54:56;3.67;;;2.92;;
6133;SDS011;3098;42.678;23.364;2023-05-02T06:57:23;4.70;;;2.65;;
6133;SDS011;3098;42.678;23.364;2023-05-02T06:59:51;6.03;;;2.97;;
6133;SDS011;3098;42.678;23.364;2023-05-02T07:02:20;3.78;;;2.80;;
6133;SDS011;3098;42.678;23.364;2023-05-02T07:04:48;4.90;;;2.80;;
6133;SDS011;3098;42.678;23.364;2023-05-02T07:07:16;4.95;;;3.22;;
6133;SDS011;3098;42.678;23.364;2023-05-02T07:09:45;3.85;;;2.50;;
6133;SDS011;3098;42.678;23.364;2023-05-02T07:12:12;4.25;;;3.10;;
6133;SDS011;3098;42.678;23.364;2023-05-02T07:14:40;6.07;;;2.83;;
6133;SDS011;3098;42.678;23.364;2023-05-02T07:17:07;3.78;;;2.70;;
6133;SDS011;3098;42.678;23.364;2023-05-02T07:19:35;3.75;;;2.85;;
6133;SDS011;3098;42.678;23.364;2023-05-02T07:22:04;6.53;;;3.35;;
6133;SDS011;3098;42.678;23.364;2023-05-02T07:24:32;2.63;;;2.40;;
6133;SDS011;3098;42.678;23.364;2023-05-02T07:26:59;8.75;;;2.65;;
6133;SDS011;3098;42.678;23.364;2023-05-02T07:29:27;9.32;;;3.00;;
6133;SDS011;3098;42.678;23.364;2023-05-02T07:31:54;7.65;;;2.55;;
6133;SDS011;3098;42.678;23.364;2023-05-02T07:34:21;3.55;;;2.40;;
6133;SDS011;3098;42.678;23.364;2023-05-02T07:36:50;5.18;;;2.47;;
6133;SDS011;3098;42.678;23.364;2023-05-02T07:39:19;5.70;;;2.60;;
6133;SDS011;3098;42.678;23.364;2023-05-02T07:41:46;10.40;;;2.80;;
6133;SDS011;3098;42.678;23.364;2023-05-02T07:44:16;4.57;;;2.72;;
6133;SDS011;3098;42.678;23.364;2023-05-02T07:46:43;3.42;;;2.78;;
6133;SDS011;3098;42.678;23.364;2023-05-02T07:49:11;6.75;;;2.75;;
6133;SDS011;3098;42.678;23.364;2023-05-02T07:51:39;3.58;;;2.75;;
6133;SDS011;3098;42.678;23.364;2023-05-02T07:54:14;4.93;;;2.80;;
6133;SDS011;3098;42.678;23.364;2023-05-02T07:56:42;3.03;;;2.50;;
6133;SDS011;3098;42.678;23.364;2023-05-02T07:59:10;3.25;;;2.50;;
6133;SDS011;3098;42.678;23.364;2023-05-02T08:01:38;2.78;;;2.10;;
6133;SDS011;3098;42.678;23.364;2023-05-02T08:04:06;7.63;;;2.70;;
6133;SDS011;3098;42.678;23.364;2023-05-02T08:06:35;3.22;;;2.33;;
6133;SDS011;3098;42.678;23.364;2023-05-02T08:09:03;2.92;;;2.25;;
6133;SDS011;3098;42.678;23.364;2023-05-02T08:11:31;7.20;;;2.67;;
6133;SDS011;3098;42.678;23.364;2023-05-02T08:13:59;5.00;;;2.90;;
6133;SDS011;3098;42.678;23.364;2023-05-02T08:16:26;3.55;;;2.65;;
6133;SDS011;3098;42.678;23.364;2023-05-02T08:18:53;3.50;;;2.38;;
6133;SDS011;3098;42.678;23.364;2023-05-02T08:21:21;4.20;;;2.60;;
6133;SDS011;3098;42.678;23.364;2023-05-02T08:23:48;2.60;;;2.17;;
6133;SDS011;3098;42.678;23.364;2023-05-02T08:26:16;3.63;;;2.60;;
6133;SDS011;3098;42.678;23.364;2023-05-02T08:28:46;4.43;;;2.95;;
6133;SDS011;3098;42.678;23.364;2023-05-02T08:31:16;8.52;;;2.63;;
6133;SDS011;3098;42.678;23.364;2023-05-02T08:33:44;4.07;;;2.40;;
6133;SDS011;3098;42.678;23.364;2023-05-02T08:36:12;4.45;;;2.92;;
6133;SDS011;3098;42.678;23.364;2023-05-02T08:38:40;2.63;;;2.10;;
6133;SDS011;3098;42.678;23.364;2023-05-02T08:41:09;3.05;;;2.33;;
6133;SDS011;3098;42.678;23.364;2023-05-02T08:43:38;3.15;;;2.10;;
6133;SDS011;3098;42.678;23.364;2023-05-02T08:46:06;4.20;;;2.35;;
6133;SDS011;3098;42.678;23.364;2023-05-02T08:48:38;3.17;;;2.50;;
6133;SDS011;3098;42.678;23.364;2023-05-02T08:51:07;8.07;;;2.50;;
6133;SDS011;3098;42.678;23.364;2023-05-02T08:53:36;2.90;;;2.30;;
6133;SDS011;3098;42.678;23.364;2023-05-02T08:56:05;3.05;;;2.25;;
6133;SDS011;3098;42.678;23.364;2023-05-02T08:58:33;6.45;;;2.85;;
6133;SDS011;3098;42.678;23.364;2023-05-02T09:01:01;4.85;;;2.25;;
6133;SDS011;3098;42.678;23.364;2023-05-02T09:03:35;8.00;;;3.30;;
6133;SDS011;3098;42.678;23.364;2023-05-02T09:06:08;2.50;;;2.00;;
6133;SDS011;3098;42.678;23.364;2023-05-02T09:08:42;2.90;;;2.25;;
6133;SDS011;3098;42.678;23.364;2023-05-02T09:11:11;5.00;;;2.88;;
6133;SDS011;3098;42.678;23.364;2023-05-02T09:13:39;2.45;;;1.92;;
6133;SDS011;3098;42.678;23.364;2023-05-02T09:16:11;4.32;;;2.40;;
6133;SDS011;3098;42.678;23.364;2023-05-02T09:18:40;3.30;;;2.33;;
6133;SDS011;3098;42.678;23.364;2023-05-02T09:21:15;2.88;;;2.28;;
6133;SDS011;3098;42.678;23.364;2023-05-02T09:23:45;3.55;;;2.90;;
6133;SDS011;3098;42.678;23.364;2023-05-02T09:26:14;4.78;;;2.30;;
6133;SDS011;3098;42.678;23.364;2023-05-02T09:28:44;6.53;;;2.30;;
6133;SDS011;3098;42.678;23.364;2023-05-02T09:31:13;4.55;;;2.35;;
6133;SDS011;3098;42.678;23.364;2023-05-02T09:33:42;2.85;;;2.20;;
6133;SDS011;3098;42.678;23.364;2023-05-02T09:36:10;3.63;;;2.47;;
6133;SDS011;3098;42.678;23.364;2023-05-02T09:38:43;4.88;;;1.92;;
6133;SDS011;3098;42.678;23.364;2023-05-02T09:41:11;3.22;;;2.10;;
6133;SDS011;3098;42.678;23.364;2023-05-02T09:43:39;3.00;;;2.20;;
6133;SDS011;3098;42.678;23.364;2023-05-02T09:46:08;3.92;;;1.95;;
6133;SDS011;3098;42.678;23.364;2023-05-02T09:48:50;9.05;;;2.30;;
6133;SDS011;3098;42.678;23.364;2023-05-02T09:51:18;3.33;;;2.20;;
6133;SDS011;3098;42.678;23.364;2023-05-02T09:53:48;3.97;;;2.28;;
6133;SDS011;3098;42.678;23.364;2023-05-02T09:56:16;3.08;;;2.08;;
6133;SDS011;3098;42.678;23.364;2023-05-02T09:58:45;3.88;;;2.30;;
6133;SDS011;3098;42.678;23.364;2023-05-02T10:01:13;5.22;;;2.40;;
6133;SDS011;3098;42.678;23.364;2023-05-02T10:03:42;4.63;;;2.20;;
6133;SDS011;3098;42.678;23.364;2023-05-02T10:06:12;3.85;;;1.90;;
6133;SDS011;3098;42.678;23.364;2023-05-02T10:08:41;4.55;;;2.08;;
6133;SDS011;3098;42.678;23.364;2023-05-02T10:11:11;7.95;;;2.40;;
6133;SDS011;3098;42.678;23.364;2023-05-02T10:13:39;3.20;;;2.17;;
6133;SDS011;3098;42.678;23.364;2023-05-02T10:16:10;5.93;;;1.90;;
6133;SDS011;3098;42.678;23.364;2023-05-02T10:18:40;4.95;;;2.25;;
6133;SDS011;3098;42.678;23.364;2023-05-02T10:21:15;3.83;;;2.38;;
6133;SDS011;3098;42.678;23.364;2023-05-02T10:23:44;3.60;;;2.28;;
6133;SDS011;3098;42.678;23.364;2023-05-02T10:26:15;3.88;;;2.10;;
6133;SDS011;3098;42.678;23.364;2023-05-02T10:28:43;2.53;;;2.05;;
6133;SDS011;3098;42.678;23.364;2023-05-02T10:31:10;2.80;;;2.00;;
6133;SDS011;3098;42.678;23.364;2023-05-02T10:33:39;3.22;;;2.17;;
6133;SDS011;3098;42.678;23.364;2023-05-02T10:36:07;3.65;;;2.28;;
6133;SDS011;3098;42.678;23.364;2023-05-02T10:38:37;2.92;;;1.98;;
6133;SDS011;3098;42.678;23.364;2023-05-02T10:41:06;4.47;;;2.30;;
6133;SDS011;3098;42.678;23.364;2023-05-02T10:43:39;7.32;;;2.22;;
6133;SDS011;3098;42.678;23.364;2023-05-02T10:46:28;4.20;;;1.77;;
6133;SDS011;3098;42.678;23.364;2023-05-02T10:49:00;5.00;;;2.35;;
6133;SDS011;3098;42.678;23.364;2023-05-02T10:51:29;2.67;;;2.05;;
6133;SDS011;3098;42.678;23.364;2023-05-02T10:57:01;10.38;;;2.22;;
6133;SDS011;3098;42.678;23.364;2023-05-02T10:59:32;2.30;;;2.03;;
6133;SDS011;3098;42.678;23.364;2023-05-02T11:02:01;5.10;;;2.03;;
6133;SDS011;3098;42.678;23.364;2023-05-02T11:07:28;3.72;;;2.17;;
6133;SDS011;3098;42.678;23.364;2023-05-02T11:12:50;6.22;;;2.38;;
6133;SDS011;3098;42.678;23.364;2023-05-02T11:18:20;3.58;;;2.50;;
6133;SDS011;3098;42.678;23.364;2023-05-02T11:20:47;3.70;;;2.25;;
6133;SDS011;3098;42.678;23.364;2023-05-02T11:23:18;3.40;;;2.38;;
6133;SDS011;3098;42.678;23.364;2023-05-02T11:25:50;2.55;;;2.00;;
6133;SDS011;3098;42.678;23.364;2023-05-02T11:28:38;6.05;;;2.30;;
6133;SDS011;3098;42.678;23.364;2023-05-02T11:31:38;3.92;;;2.10;;
6133;SDS011;3098;42.678;23.364;2023-05-02T11:34:42;4.88;;;3.17;;
6133;SDS011;3098;42.678;23.364;2023-05-02T11:37:11;3.45;;;2.20;;
6133;SDS011;3098;42.678;23.364;2023-05-02T11:39:38;2.90;;;2.38;;
6133;SDS011;3098;42.678;23.364;2023-05-02T11:42:06;3.88;;;2.45;;
6133;SDS011;3098;42.678;23.364;2023-05-02T11:44:33;3.20;;;2.10;;
6133;SDS011;3098;42.678;23.364;2023-05-02T11:47:01;10.50;;;2.30;;
6133;SDS011;3098;42.678;23.364;2023-05-02T11:49:28;2.85;;;2.20;;
6133;SDS011;3098;42.678;23.364;2023-05-02T11:51:59;3.28;;;2.15;;
6133;SDS011;3098;42.678;23.364;2023-05-02T11:54:26;3.38;;;2.42;;
6133;SDS011;3098;42.678;23.364;2023-05-02T11:56:54;2.15;;;1.60;;
6133;SDS011;3098;42.678;23.364;2023-05-02T11:59:23;3.42;;;2.10;;
6133;SDS011;3098;42.678;23.364;2023-05-02T12:01:50;5.25;;;2.30;;
6133;SDS011;3098;42.678;23.364;2023-05-02T12:04:20;3.35;;;1.90;;
6133;SDS011;3098;42.678;23.364;2023-05-02T12:06:54;7.78;;;2.58;;
6133;SDS011;3098;42.678;23.364;2023-05-02T12:09:24;3.45;;;2.30;;
6133;SDS011;3098;42.678;23.364;2023-05-02T12:11:51;4.07;;;2.20;;
6133;SDS011;3098;42.678;23.364;2023-05-02T12:14:26;3.42;;;2.28;;
6133;SDS011;3098;42.678;23.364;2023-05-02T12:17:02;5.15;;;2.50;;
6133;SDS011;3098;42.678;23.364;2023-05-02T12:19:29;2.72;;;2.10;;
6133;SDS011;3098;42.678;23.364;2023-05-02T12:21:57;3.75;;;2.10;;
6133;SDS011;3098;42.678;23.364;2023-05-02T12:24:26;3.17;;;2.22;;
6133;SDS011;3098;42.678;23.364;2023-05-02T12:27:07;4.63;;;2.38;;
6133;SDS011;3098;42.678;23.364;2023-05-02T12:29:39;3.97;;;2.30;;
6133;SDS011;3098;42.678;23.364;2023-05-02T12:32:07;3.83;;;2.30;;
6133;SDS011;3098;42.678;23.364;2023-05-02T12:34:34;8.05;;;2.33;;
6133;SDS011;3098;42.678;23.364;2023-05-02T12:37:02;2.47;;;1.92;;
6133;SDS011;3098;42.678;23.364;2023-05-02T12:39:35;5.30;;;2.13;;
6133;SDS011;3098;42.678;23.364;2023-05-02T12:42:09;3.55;;;2.08;;
6133;SDS011;3098;42.678;23.364;2023-05-02T12:44:39;3.20;;;2.30;;
6133;SDS011;3098;42.678;23.364;2023-05-02T12:47:07;6.90;;;2.20;;
6133;SDS011;3098;42.678;23.364;2023-05-02T12:49:48;12.20;;;2.25;;
6133;SDS011;3098;42.678;23.364;2023-05-02T12:52:17;8.13;;;2.20;;
6133;SDS011;3098;42.678;23.364;2023-05-02T12:54:46;2.28;;;1.50;;
6133;SDS011;3098;42.678;23.364;2023-05-02T12:57:23;4.32;;;2.03;;
6133;SDS011;3098;42.678;23.364;2023-05-02T12:59:51;3.88;;;2.20;;
6133;SDS011;3098;42.678;23.364;2023-05-02T13:02:19;3.28;;;1.67;;
6133;SDS011;3098;42.678;23.364;2023-05-02T13:04:46;4.55;;;2.30;;
6133;SDS011;3098;42.678;23.364;2023-05-02T13:07:14;2.55;;;1.90;;
6133;SDS011;3098;42.678;23.364;2023-05-02T13:09:41;2.08;;;1.70;;
6133;SDS011;3098;42.678;23.364;2023-05-02T13:12:10;7.00;;;2.10;;
6133;SDS011;3098;42.678;23.364;2023-05-02T13:14:38;2.25;;;1.60;;
6133;SDS011;3098;42.678;23.364;2023-05-02T13:17:05;3.28;;;1.98;;
6133;SDS011;3098;42.678;23.364;2023-05-02T13:19:32;6.32;;;2.00;;
6133;SDS011;3098;42.678;23.364;2023-05-02T13:22:00;2.90;;;2.10;;
6133;SDS011;3098;42.678;23.364;2023-05-02T13:24:27;2.33;;;1.70;;
6133;SDS011;3098;42.678;23.364;2023-05-02T13:26:54;2.15;;;1.58;;
6133;SDS011;3098;42.678;23.364;2023-05-02T13:29:23;6.28;;;1.90;;
6133;SDS011;3098;42.678;23.364;2023-05-02T13:31:50;4.50;;;2.20;;
6133;SDS011;3098;42.678;23.364;2023-05-02T13:34:17;5.35;;;2.20;;
6133;SDS011;3098;42.678;23.364;2023-05-02T13:36:45;3.35;;;2.00;;
6133;SDS011;3098;42.678;23.364;2023-05-02T13:39:12;3.35;;;2.10;;
6133;SDS011;3098;42.678;23.364;2023-05-02T13:41:40;1.95;;;1.55;;
6133;SDS011;3098;42.678;23.364;2023-05-02T13:44:07;3.85;;;2.13;;
6133;SDS011;3098;42.678;23.364;2023-05-02T13:46:37;2.38;;;1.80;;
6133;SDS011;3098;42.678;23.364;2023-05-02T13:49:04;4.28;;;1.92;;
6133;SDS011;3098;42.678;23.364;2023-05-02T13:51:32;3.40;;;1.90;;
6133;SDS011;3098;42.678;23.364;2023-05-02T13:53:59;4.28;;;2.03;;
6133;SDS011;3098;42.678;23.364;2023-05-02T13:56:27;5.72;;;1.85;;
6133;SDS011;3098;42.678;23.364;2023-05-02T13:58:54;3.15;;;1.83;;
6133;SDS011;3098;42.678;23.364;2023-05-02T14:01:21;5.05;;;1.77;;
6133;SDS011;3098;42.678;23.364;2023-05-02T14:03:52;2.90;;;1.77;;
6133;SDS011;3098;42.678;23.364;2023-05-02T14:06:19;7.22;;;1.98;;
6133;SDS011;3098;42.678;23.364;2023-05-02T14:08:47;2.70;;;1.70;;
6133;SDS011;3098;42.678;23.364;2023-05-02T14:11:15;2.17;;;1.75;;
6133;SDS011;3098;42.678;23.364;2023-05-02T14:13:42;4.45;;;1.73;;
6133;SDS011;3098;42.678;23.364;2023-05-02T14:16:12;4.93;;;1.80;;
6133;SDS011;3098;42.678;23.364;2023-05-02T14:18:39;2.55;;;1.67;;
6133;SDS011;3098;42.678;23.364;2023-05-02T14:21:08;3.60;;;1.90;;
6133;SDS011;3098;42.678;23.364;2023-05-02T14:23:35;6.22;;;1.90;;
6133;SDS011;3098;42.678;23.364;2023-05-02T14:26:03;2.53;;;1.48;;
6133;SDS011;3098;42.678;23.364;2023-05-02T14:28:30;4.43;;;1.95;;
6133;SDS011;3098;42.678;23.364;2023-05-02T14:30:57;2.28;;;1.70;;
6133;SDS011;3098;42.678;23.364;2023-05-02T14:33:24;4.18;;;1.90;;
6133;SDS011;3098;42.678;23.364;2023-05-02T14:35:52;3.60;;;1.88;;
6133;SDS011;3098;42.678;23.364;2023-05-02T14:38:20;3.00;;;1.70;;
6133;SDS011;3098;42.678;23.364;2023-05-02T14:40:47;2.08;;;1.60;;
6133;SDS011;3098;42.678;23.364;2023-05-02T14:43:15;5.68;;;2.10;;
6133;SDS011;3098;42.678;23.364;2023-05-02T14:45:42;2.70;;;2.00;;
6133;SDS011;3098;42.678;23.364;2023-05-02T14:48:10;3.05;;;2.05;;
6133;SDS011;3098;42.678;23.364;2023-05-02T14:50:40;3.75;;;1.67;;
6133;SDS011;3098;42.678;23.364;2023-05-02T14:53:08;2.58;;;1.50;;
6133;SDS011;3098;42.678;23.364;2023-05-02T14:55:37;3.97;;;1.77;;
6133;SDS011;3098;42.678;23.364;2023-05-02T14:58:05;2.80;;;1.60;;
6133;SDS011;3098;42.678;23.364;2023-05-02T15:00:32;2.63;;;1.58;;
6133;SDS011;3098;42.678;23.364;2023-05-02T15:03:01;5.50;;;1.70;;
6133;SDS011;3098;42.678;23.364;2023-05-02T15:05:29;3.50;;;1.90;;
6133;SDS011;3098;42.678;23.364;2023-05-02T15:07:56;3.33;;;1.42;;
6133;SDS011;3098;42.678;23.364;2023-05-02T15:10:23;4.60;;;1.98;;
6133;SDS011;3098;42.678;23.364;2023-05-02T15:12:52;2.65;;;1.38;;
6133;SDS011;3098;42.678;23.364;2023-05-02T15:15:19;5.82;;;1.77;;
6133;SDS011;3098;42.678;23.364;2023-05-02T15:17:49;2.03;;;1.60;;
6133;SDS011;3098;42.678;23.364;2023-05-02T15:20:16;3.22;;;2.05;;
6133;SDS011;3098;42.678;23.364;2023-05-02T15:22:45;4.95;;;1.50;;
6133;SDS011;3098;42.678;23.364;2023-05-02T15:25:12;2.05;;;1.50;;
6133;SDS011;3098;42.678;23.364;2023-05-02T15:27:40;4.45;;;1.95;;